Time;durP1;ratioP1;P1;durP2;ratioP2;P2;SDS_P1;SDS_P2;PMS_P1;PMS_P2;Temp;Humidity;BMP_temperature;BMP_pressure;BME280_temperature;BME280_humidity;BME280_pressure;Samples;Min_cycle;Max_cycle;Signal;HPM_P1;HPM_P2
2023/05/25 00:01:18;;;;;;;11.97;5.00;;;;;;;41.22;34.64;101008.47;5093648;28;20448;-83
2023/05/25 00:03:44;;;;;;;30.23;7.60;;;;;;;41.15;34.83;100996.50;5093458;28;20993;-84
2023/05/25 00:06:11;;;;;;;25.93;5.17;;;;;;;41.18;35.27;100977.59;5095023;28;20201;-84
2023/05/25 00:08:40;;;;;;;14.53;4.87;;;;;;;41.21;35.51;100976.16;5082754;28;20459;-84
2023/05/25 00:11:06;;;;;;;18.43;5.23;;;;;;;41.21;35.29;100962.56;5073169;28;20414;-84
2023/05/25 00:13:31;;;;;;;19.97;5.50;;;;;;;41.19;35.03;100945.72;5072835;28;20466;-83
2023/05/25 00:15:57;;;;;;;19.30;5.10;;;;;;;41.20;35.16;100931.81;5072887;28;20183;-83
2023/05/25 00:18:26;;;;;;;18.00;4.73;;;;;;;41.22;35.04;100924.09;5072921;28;20790;-84
2023/05/25 00:20:53;;;;;;;18.07;4.80;;;;;;;41.25;35.13;100907.13;5072953;28;20669;-84
2023/05/25 00:23:19;;;;;;;24.40;6.43;;;;;;;41.24;35.20;100888.38;5074528;28;20425;-84
2023/05/25 00:25:46;;;;;;;20.43;5.43;;;;;;;41.27;35.32;100876.84;5083840;28;21064;-83
2023/05/25 00:28:12;;;;;;;18.07;5.87;;;;;;;41.34;35.13;100869.78;5093041;28;20944;-82
2023/05/25 00:30:38;;;;;;;15.97;6.87;;;;;;;41.32;34.95;100857.63;5092791;28;20420;-82
2023/05/25 00:33:04;;;;;;;20.80;6.23;;;;;;;41.33;34.87;100845.63;5092750;28;20472;-83
2023/05/25 00:35:30;;;;;;;20.73;5.83;;;;;;;41.23;35.15;100833.16;5083981;28;20415;-82
2023/05/25 00:37:56;;;;;;;17.40;6.80;;;;;;;41.21;35.37;100831.91;5072464;28;20792;-82
2023/05/25 00:40:22;;;;;;;23.13;5.83;;;;;;;41.23;35.39;100825.00;5072535;28;20290;-82
2023/05/25 00:42:48;;;;;;;16.33;5.13;;;;;;;41.25;35.19;100822.75;5072451;28;20178;-84
2023/05/25 00:45:14;;;;;;;23.80;5.67;;;;;;;41.25;35.29;100813.78;5078606;28;20409;-84
2023/05/25 00:47:40;;;;;;;22.83;7.10;;;;;;;41.31;35.35;100820.63;5094023;28;20863;-85
2023/05/25 00:50:09;;;;;;;22.97;6.30;;;;;;;41.27;35.29;100808.81;5092379;28;20513;-83
2023/05/25 00:52:35;;;;;;;26.53;6.83;;;;;;;41.29;35.08;100796.44;5092562;28;20517;-82
2023/05/25 00:55:02;;;;;;;22.33;5.87;;;;;;;41.37;35.15;100792.09;5087767;28;20425;-83
2023/05/25 00:57:32;;;;;;;15.07;5.10;;;;;;;41.36;35.10;100795.94;5072181;28;20452;-82
2023/05/25 01:00:01;;;;;;;19.90;7.17;;;;;;;41.28;35.47;100797.59;5055412;28;20425;-82
2023/05/25 01:02:28;;;;;;;18.10;4.53;;;;;;;41.23;35.48;100792.34;5072308;28;20519;-82
2023/05/25 01:04:58;;;;;;;27.93;6.60;;;;;;;41.23;35.55;100789.59;5075402;28;20444;-82
2023/05/25 01:07:29;;;;;;;24.13;6.67;;;;;;;41.24;35.59;100787.69;5092229;28;20420;-82
2023/05/25 01:10:05;;;;;;;14.03;4.43;;;;;;;41.05;35.94;100785.41;5092278;28;20912;-82
2023/05/25 01:12:36;;;;;;;24.63;6.20;;;;;;;41.08;35.69;100779.31;5091720;28;20851;-83
2023/05/25 01:15:03;;;;;;;22.40;6.53;;;;;;;41.13;35.97;100764.69;5087918;28;20410;-83
2023/05/25 01:17:29;;;;;;;14.73;6.50;;;;;;;41.08;35.78;100760.28;5071789;28;20978;-83
2023/05/25 01:19:57;;;;;;;30.87;6.90;;;;;;;41.00;36.19;100772.78;5071834;28;20410;-83
2023/05/25 01:22:32;;;;;;;17.33;7.17;;;;;;;41.00;35.73;100772.78;5073314;28;20432;-81
2023/05/25 01:25:30;;;;;;;18.63;4.37;;;;;;;41.00;35.83;100756.47;5075221;28;20470;-82
2023/05/25 01:28:04;;;;;;;34.23;8.47;;;;;;;41.01;35.79;100765.44;5089831;28;20973;-82
2023/05/25 01:30:32;;;;;;;15.80;5.57;;;;;;;40.97;35.67;100764.50;5091918;28;20435;-82
2023/05/25 01:32:59;;;;;;;18.10;5.53;;;;;;;40.93;35.52;100758.13;5091729;28;20473;-82
2023/05/25 01:35:27;;;;;;;16.00;4.80;;;;;;;40.80;35.81;100758.00;5084537;28;20422;-82
2023/05/25 01:37:53;;;;;;;19.63;5.87;;;;;;;40.70;35.82;100755.69;5073054;28;20838;-84
2023/05/25 01:40:19;;;;;;;15.27;4.37;;;;;;;40.74;35.71;100753.88;5075503;28;20409;-84
2023/05/25 01:42:45;;;;;;;18.87;4.87;;;;;;;40.80;35.65;100758.00;5092873;28;20958;-84
2023/05/25 01:45:13;;;;;;;14.67;4.90;;;;;;;40.71;35.78;100751.03;5091416;28;20851;-83
2023/05/25 01:47:47;;;;;;;17.30;5.03;;;;;;;40.51;36.12;100745.19;5081586;28;20735;-84
2023/05/25 01:50:24;;;;;;;15.70;5.67;;;;;;;40.60;36.20;100756.03;5071206;28;20425;-82
2023/05/25 01:52:59;;;;;;;24.83;6.40;;;;;;;40.72;35.94;100747.97;5072811;28;20560;-83
2023/05/25 01:55:27;;;;;;;13.70;5.03;;;;;;;40.77;36.02;100750.50;5071297;28;20867;-82
2023/05/25 01:57:58;;;;;;;15.30;5.03;;;;;;;40.66;35.85;100745.78;5071106;28;20794;-82
2023/05/25 02:00:32;;;;;;;16.77;5.87;;;;;;;40.68;36.20;100744.31;5071164;28;20452;-84
2023/05/25 02:03:00;;;;;;;14.10;5.20;;;;;;;40.61;36.11;100735.88;5071637;28;20945;-84
2023/05/25 02:05:26;;;;;;;19.33;6.80;;;;;;;40.46;36.14;100734.47;5075714;28;20417;-84
2023/05/25 02:07:53;;;;;;;11.60;4.70;;;;;;;40.52;36.17;100732.41;5091254;28;20449;-83
2023/05/25 02:10:19;;;;;;;14.23;4.77;;;;;;;40.60;35.79;100738.94;5087244;28;20419;-83
2023/05/25 02:12:45;;;;;;;14.70;5.80;;;;;;;40.55;36.19;100743.41;5091291;28;20472;-82
2023/05/25 02:15:11;;;;;;;17.23;5.03;;;;;;;40.63;35.99;100746.41;5091632;28;20446;-82
2023/05/25 02:17:37;;;;;;;15.47;5.80;;;;;;;40.67;35.68;100745.44;5091278;28;20462;-82
2023/05/25 02:20:07;;;;;;;17.40;6.10;;;;;;;40.68;35.45;100748.94;5091459;28;20425;-84
2023/05/25 02:22:33;;;;;;;19.43;6.50;;;;;;;40.46;36.04;100758.16;5091411;28;20423;-82
2023/05/25 02:24:59;;;;;;;14.50;4.70;;;;;;;40.42;36.02;100768.88;5091091;28;20924;-84
2023/05/25 02:27:25;;;;;;;18.57;5.20;;;;;;;40.51;35.84;100766.94;5076473;28;20433;-83
2023/05/25 02:29:52;;;;;;;12.73;5.83;;;;;;;40.44;35.86;100763.09;5070978;28;20858;-83
2023/05/25 02:32:18;;;;;;;10.43;6.23;;;;;;;40.54;35.66;100768.22;5072491;28;20449;-82
2023/05/25 02:34:45;;;;;;;14.53;5.50;;;;;;;40.38;36.18;100788.88;5075761;28;20427;-83
2023/05/25 02:37:11;;;;;;;14.20;5.60;;;;;;;40.49;35.90;100782.00;5092760;28;20162;-82
2023/05/25 02:39:37;;;;;;;13.87;5.20;;;;;;;40.36;36.08;100761.22;5094218;28;20534;-83
2023/05/25 02:42:03;;;;;;;13.20;5.67;;;;;;;40.48;36.01;100778.47;5095533;28;20425;-83
2023/05/25 02:44:30;;;;;;;13.17;4.60;;;;;;;40.51;35.80;100760.69;5094908;28;20182;-82
2023/05/25 02:46:56;;;;;;;15.57;4.40;;;;;;;40.57;35.62;100753.94;5094600;28;20413;-84
2023/05/25 02:49:22;;;;;;;17.47;5.50;;;;;;;40.56;35.59;100782.28;5095018;28;20436;-84
2023/05/25 02:51:48;;;;;;;12.93;4.67;;;;;;;40.50;35.95;100803.41;5079691;28;20472;-84
2023/05/25 02:54:14;;;;;;;16.00;6.10;;;;;;;40.46;35.60;100805.16;5074900;28;20238;-84
2023/05/25 02:56:41;;;;;;;14.50;5.43;;;;;;;40.36;36.02;100810.16;5074726;28;20320;-82
2023/05/25 02:59:07;;;;;;;18.53;4.50;;;;;;;40.14;36.45;100806.50;5075803;28;20922;-82
2023/05/25 03:01:34;;;;;;;29.30;5.37;;;;;;;40.32;36.21;100814.63;5074564;28;20975;-82
2023/05/25 03:04:00;;;;;;;17.00;5.67;;;;;;;40.45;35.74;100830.72;5074406;28;20417;-82
2023/05/25 03:06:26;;;;;;;15.63;3.97;;;;;;;40.49;35.63;100820.03;5074345;28;20456;-81
2023/05/25 03:08:52;;;;;;;14.73;4.23;;;;;;;40.55;35.50;100822.25;5074288;28;20420;-82
2023/05/25 03:11:18;;;;;;;14.37;5.10;;;;;;;40.49;35.77;100820.03;5074153;28;20496;-81
2023/05/25 03:13:44;;;;;;;16.20;4.40;;;;;;;40.50;35.92;100821.63;5074178;28;20418;-82
2023/05/25 03:16:11;;;;;;;17.43;5.23;;;;;;;40.36;35.59;100824.53;5079886;28;20261;-81
2023/05/25 03:18:37;;;;;;;16.10;4.33;;;;;;;40.46;35.65;100828.84;5094349;28;20501;-82
2023/05/25 03:21:03;;;;;;;12.60;4.40;;;;;;;40.47;35.68;100825.81;5094426;28;20495;-82
2023/05/25 03:23:29;;;;;;;13.33;4.10;;;;;;;40.54;35.95;100830.75;5094203;28;20948;-82
2023/05/25 03:25:55;;;;;;;15.97;4.80;;;;;;;40.58;35.83;100834.44;5094287;28;20440;-82
2023/05/25 03:28:21;;;;;;;11.40;5.00;;;;;;;40.54;35.79;100833.47;5094264;28;20861;-83
2023/05/25 03:30:47;;;;;;;15.87;5.80;;;;;;;40.50;35.71;100838.75;5093526;28;20544;-84
2023/05/25 03:33:13;;;;;;;11.50;4.80;;;;;;;40.45;35.84;100838.88;5094001;28;20204;-84
2023/05/25 03:35:39;;;;;;;19.40;5.20;;;;;;;40.45;35.98;100844.31;5094083;28;20210;-84
2023/05/25 03:38:05;;;;;;;25.43;6.00;;;;;;;40.46;36.05;100837.00;5092607;28;20500;-82
2023/05/25 03:40:31;;;;;;;13.50;5.80;;;;;;;40.46;35.54;100837.00;5073515;28;20512;-82
2023/05/25 03:42:57;;;;;;;12.57;4.50;;;;;;;40.52;35.84;100839.25;5073469;28;20859;-84
2023/05/25 03:45:23;;;;;;;13.70;5.30;;;;;;;40.56;35.79;100828.50;5073642;28;20189;-84
2023/05/25 03:47:48;;;;;;;25.83;6.10;;;;;;;40.65;35.43;100825.75;5073461;28;20180;-84
2023/05/25 03:50:15;;;;;;;13.43;5.50;;;;;;;40.66;35.50;100824.63;5072821;28;20231;-82
2023/05/25 03:52:40;;;;;;;20.93;6.27;;;;;;;40.66;35.18;100825.44;5073547;28;20480;-82
2023/05/25 03:55:07;;;;;;;18.03;5.57;;;;;;;40.62;35.35;100816.31;5075809;28;20847;-82
2023/05/25 03:57:33;;;;;;;16.90;5.13;;;;;;;40.56;35.85;100817.63;5093615;28;20420;-83
2023/05/25 03:59:58;;;;;;;13.23;4.80;;;;;;;40.56;35.84;100831.22;5093939;28;20405;-82
2023/05/25 04:02:25;;;;;;;25.97;5.17;;;;;;;40.56;35.79;100831.22;5093633;28;20259;-84
2023/05/25 04:04:52;;;;;;;15.07;4.73;;;;;;;40.57;35.40;100823.84;5095261;28;20400;-84
2023/05/25 04:07:19;;;;;;;21.43;5.40;;;;;;;40.49;35.56;100828.19;5093417;28;20415;-84
2023/05/25 04:09:45;;;;;;;19.33;5.10;;;;;;;40.48;35.56;100832.06;5093457;28;20441;-84
2023/05/25 04:12:11;;;;;;;17.07;5.67;;;;;;;40.54;35.60;100836.19;5091246;28;20508;-84
2023/05/25 04:14:37;;;;;;;16.40;5.73;;;;;;;40.58;35.48;100837.16;5073600;28;20502;-84
2023/05/25 04:17:03;;;;;;;17.60;7.43;;;;;;;40.61;36.08;100841.91;5073157;28;20839;-84
2023/05/25 04:19:29;;;;;;;19.93;6.13;;;;;;;40.65;35.93;100847.53;5072858;28;20428;-84
2023/05/25 04:21:55;;;;;;;12.80;5.37;;;;;;;40.64;36.04;100840.47;5072695;28;20414;-84
2023/05/25 04:24:21;;;;;;;13.87;6.97;;;;;;;40.66;35.84;100849.91;5072918;28;20209;-82
2023/05/25 04:26:48;;;;;;;20.87;6.60;;;;;;;40.66;36.02;100855.34;5072924;28;20541;-82
2023/05/25 04:29:14;;;;;;;19.60;5.90;;;;;;;40.67;35.98;100853.41;5072895;28;20424;-83
2023/05/25 04:31:42;;;;;;;11.47;5.70;;;;;;;40.65;36.04;100852.97;5090947;28;20463;-82
2023/05/25 04:34:09;;;;;;;15.57;7.40;;;;;;;40.69;36.00;100856.59;5092958;28;20421;-82
2023/05/25 04:36:37;;;;;;;16.43;6.70;;;;;;;40.68;36.07;100853.09;5092960;28;20477;-82
2023/05/25 04:39:04;;;;;;;19.93;7.40;;;;;;;40.69;36.42;100860.13;5092815;28;20424;-82
2023/05/25 04:41:30;;;;;;;15.23;6.90;;;;;;;40.67;35.90;100867.81;5092830;28;20409;-82
2023/05/25 04:43:56;;;;;;;16.53;6.53;;;;;;;40.74;36.26;100876.25;5092691;28;20923;-84
2023/05/25 04:46:22;;;;;;;20.50;9.03;;;;;;;40.76;35.53;100878.66;5092763;28;20916;-84
2023/05/25 04:48:49;;;;;;;22.57;9.70;;;;;;;40.77;35.57;100888.44;5084506;28;20998;-84
2023/05/25 04:51:15;;;;;;;21.57;12.70;;;;;;;40.76;35.83;100889.53;5072303;28;20449;-84
2023/05/25 04:53:41;;;;;;;22.40;11.23;;;;;;;40.74;35.64;100900.75;5072388;28;20410;-84
2023/05/25 04:56:07;;;;;;;27.00;12.60;;;;;;;40.74;35.42;100898.00;5072109;28;20444;-84
2023/05/25 04:58:33;;;;;;;28.33;13.70;;;;;;;40.71;35.94;100906.03;5072488;28;20664;-84
2023/05/25 05:00:59;;;;;;;29.53;17.43;;;;;;;40.66;36.40;100915.16;5072096;28;20445;-84
2023/05/25 05:03:25;;;;;;;36.37;19.87;;;;;;;40.64;36.10;100916.59;5071023;28;20910;-84
2023/05/25 05:05:51;;;;;;;18.60;13.10;;;;;;;40.56;36.11;100923.66;5082538;28;20440;-82
2023/05/25 05:08:17;;;;;;;28.50;11.70;;;;;;;40.57;36.32;100927.19;5092327;28;20409;-82
2023/05/25 05:10:43;;;;;;;19.10;11.07;;;;;;;40.54;36.36;100942.22;5092451;28;20179;-82
2023/05/25 05:13:10;;;;;;;24.27;9.60;;;;;;;40.56;36.39;100939.97;5092125;28;20465;-82
2023/05/25 05:15:36;;;;;;;15.27;9.47;;;;;;;40.56;36.75;100942.69;5092131;28;20443;-82
2023/05/25 05:18:02;;;;;;;29.83;11.47;;;;;;;40.45;36.67;100949.53;5072768;28;20949;-82
2023/05/25 05:20:28;;;;;;;20.10;13.70;;;;;;;40.53;36.62;100955.03;5091468;28;20401;-82
2023/05/25 05:22:54;;;;;;;22.63;13.97;;;;;;;40.48;36.77;100952.47;5093522;28;20466;-82
2023/05/25 05:25:20;;;;;;;26.50;11.83;;;;;;;40.54;36.23;100964.78;5092259;28;20417;-82
2023/05/25 05:27:46;;;;;;;24.70;10.10;;;;;;;40.32;36.38;100964.91;5091817;28;20223;-83
2023/05/25 05:30:12;;;;;;;17.80;11.17;;;;;;;40.22;36.37;100966.03;5091889;28;20444;-82
2023/05/25 05:32:38;;;;;;;22.83;10.43;;;;;;;40.24;36.68;100982.81;5091725;28;20990;-83
2023/05/25 05:35:04;;;;;;;17.47;11.33;;;;;;;40.27;36.58;100978.69;5091393;28;20425;-82
2023/05/25 05:37:30;;;;;;;17.97;9.83;;;;;;;40.39;36.50;100983.44;5080020;28;20425;-83
2023/05/25 05:39:56;;;;;;;21.00;12.47;;;;;;;40.24;36.76;100977.38;5071327;28;20513;-82
2023/05/25 05:42:25;;;;;;;28.27;12.50;;;;;;;40.21;37.37;100986.19;5090710;28;20436;-84
2023/05/25 05:44:51;;;;;;;16.80;10.47;;;;;;;40.25;37.33;100995.28;5088166;28;20503;-86
2023/05/25 05:47:17;;;;;;;29.07;9.87;;;;;;;39.92;37.95;100991.41;5084535;28;20520;-86
2023/05/25 05:49:43;;;;;;;23.60;11.27;;;;;;;39.93;38.16;100984.84;5070486;28;20233;-84
2023/05/25 05:52:09;;;;;;;21.03;10.90;;;;;;;39.96;37.70;100990.47;5088888;28;20203;-87
2023/05/25 05:54:35;;;;;;;26.30;14.00;;;;;;;39.99;37.52;100991.72;5091491;28;20417;-88
2023/05/25 05:57:02;;;;;;;26.43;13.87;;;;;;;40.00;37.86;100993.31;5087720;28;20463;-86
2023/05/25 05:59:28;;;;;;;22.33;12.20;;;;;;;40.16;37.30;100994.50;5085913;28;20420;-88
2023/05/25 06:01:54;;;;;;;21.60;10.23;;;;;;;39.92;37.56;101000.34;5089014;28;20444;-88
2023/05/25 06:04:22;;;;;;;17.73;11.20;;;;;;;40.10;37.61;101000.41;5089191;28;20489;-86
2023/05/25 06:06:48;;;;;;;20.30;9.13;;;;;;;40.15;37.07;101003.78;5089558;28;20437;-86
2023/05/25 06:09:15;;;;;;;24.10;10.93;;;;;;;40.18;37.39;100994.19;5090486;28;20427;-85
2023/05/25 06:11:41;;;;;;;18.10;9.77;;;;;;;40.25;36.61;100997.22;5089134;28;20476;-85
2023/05/25 06:14:06;;;;;;;27.73;10.67;;;;;;;40.23;37.03;100994.81;5090605;28;20213;-83
2023/05/25 06:16:32;;;;;;;17.80;11.30;;;;;;;40.34;36.58;100997.22;5091302;28;20508;-84
2023/05/25 06:18:58;;;;;;;15.80;9.17;;;;;;;40.36;36.17;100998.50;5078925;28;20183;-85
2023/05/25 06:21:27;;;;;;;29.93;9.70;;;;;;;40.32;36.31;101002.16;5087930;28;20421;-79
2023/05/25 06:23:56;;;;;;;20.33;9.60;;;;;;;40.40;36.53;101007.63;5072835;28;20178;-90
2023/05/25 06:26:23;;;;;;;23.27;10.33;;;;;;;40.57;36.19;100998.66;5088405;28;20979;-83
2023/05/25 06:28:49;;;;;;;26.27;9.67;;;;;;;40.62;35.76;101003.16;5081866;28;20417;-85
2023/05/25 06:31:15;;;;;;;18.60;9.37;;;;;;;40.72;35.56;101013.72;5068180;28;20452;-85
2023/05/25 06:33:41;;;;;;;21.03;10.50;;;;;;;40.75;35.36;101008.41;5071281;28;20404;-85
2023/05/25 06:36:07;;;;;;;24.63;10.53;;;;;;;40.81;35.58;101018.00;5070783;28;20418;-84
2023/05/25 06:38:33;;;;;;;24.67;10.67;;;;;;;40.84;35.51;101007.59;5073797;28;20416;-84
2023/05/25 06:41:04;;;;;;;25.73;12.90;;;;;;;40.85;35.43;101012.72;5089223;28;20416;-83
2023/05/25 06:43:31;;;;;;;35.33;13.20;;;;;;;40.89;35.84;101026.50;5090595;28;20846;-85
2023/05/25 06:45:57;;;;;;;20.33;15.67;;;;;;;40.89;35.39;101026.50;5090899;28;20413;-84
2023/05/25 06:48:23;;;;;;;39.00;15.17;;;;;;;40.75;35.93;101032.88;5087908;28;20570;-84
2023/05/25 06:50:49;;;;;;;28.03;16.87;;;;;;;40.87;35.84;101029.50;5070617;28;20505;-84
2023/05/25 06:53:16;;;;;;;22.80;14.93;;;;;;;40.89;35.51;101031.94;5070571;28;20456;-82
2023/05/25 06:55:43;;;;;;;30.07;17.70;;;;;;;40.88;35.32;101041.97;5070698;28;21025;-82
2023/05/25 06:58:09;;;;;;;25.70;17.57;;;;;;;40.55;35.62;101038.97;5072161;28;20493;-82
2023/05/25 07:00:35;;;;;;;46.83;23.97;;;;;;;40.43;36.32;101041.50;5090606;28;20497;-83
2023/05/25 07:03:10;;;;;;;33.03;20.33;;;;;;;40.38;36.54;101037.03;5093728;28;21014;-86
2023/05/25 07:05:37;;;;;;;32.80;19.03;;;;;;;40.39;36.19;101040.53;5072889;28;20632;-79
2023/05/25 07:08:06;;;;;;;30.37;16.07;;;;;;;40.32;36.27;101051.88;5086614;28;20527;-88
2023/05/25 07:10:40;;;;;;;24.53;15.97;;;;;;;40.21;36.06;101037.03;5090399;28;20451;-93
2023/05/25 07:13:06;;;;;;;27.80;13.87;;;;;;;40.33;36.08;101047.25;5090077;28;20489;-86
2023/05/25 07:15:32;;;;;;;28.63;15.07;;;;;;;40.18;36.43;101048.53;5088610;28;20431;-85
2023/05/25 07:17:58;;;;;;;32.27;12.80;;;;;;;40.40;36.22;101053.84;5087924;28;20203;-88
2023/05/25 07:20:24;;;;;;;29.53;12.20;;;;;;;40.46;36.14;101049.84;5068078;28;20421;-87
2023/05/25 07:22:52;;;;;;;22.50;13.77;;;;;;;40.44;36.40;101054.78;5069039;28;20410;-86
2023/05/25 07:25:18;;;;;;;26.70;12.70;;;;;;;40.50;35.97;101050.81;5089436;28;20441;-87
2023/05/25 07:27:49;;;;;;;20.83;12.30;;;;;;;40.34;35.71;101046.16;5094237;28;20427;-81
2023/05/25 07:30:15;;;;;;;23.57;13.93;;;;;;;40.50;35.53;101050.81;5094239;28;20479;-84
2023/05/25 07:32:41;;;;;;;21.43;10.67;;;;;;;40.53;35.04;101047.47;5093628;28;20452;-85
2023/05/25 07:35:07;;;;;;;20.40;10.90;;;;;;;40.50;35.07;101045.38;5093439;28;20417;-84
2023/05/25 07:37:33;;;;;;;22.63;11.43;;;;;;;40.54;35.27;101056.41;5093695;28;20417;-85
2023/05/25 07:39:59;;;;;;;26.83;11.17;;;;;;;40.59;34.63;101059.00;5093296;28;20465;-83
2023/05/25 07:42:32;;;;;;;25.10;11.03;;;;;;;40.52;35.05;101054.03;5092783;28;20175;-81
2023/05/25 07:44:58;;;;;;;24.33;10.87;;;;;;;40.65;34.92;101054.19;5092998;28;20949;-82
2023/05/25 07:47:25;;;;;;;21.73;9.47;;;;;;;40.73;34.27;101058.81;5089454;28;20425;-83
2023/05/25 07:49:51;;;;;;;22.53;9.90;;;;;;;40.79;34.08;101054.81;5093629;28;20519;-81
2023/05/25 07:52:18;;;;;;;25.17;10.40;;;;;;;40.70;34.61;101054.00;5093678;28;20464;-81
2023/05/25 07:54:44;;;;;;;23.60;10.43;;;;;;;40.85;34.60;101053.53;5093276;28;20428;-81
2023/05/25 07:57:10;;;;;;;20.07;10.23;;;;;;;40.88;34.39;101058.31;5093554;28;20416;-81
2023/05/25 07:59:36;;;;;;;20.33;10.93;;;;;;;40.94;34.56;101050.81;5093799;28;20518;-84
2023/05/25 08:02:02;;;;;;;24.33;10.73;;;;;;;41.04;34.56;101056.72;5091909;28;20437;-81
2023/05/25 08:04:30;;;;;;;27.83;9.33;;;;;;;41.04;34.21;101064.09;5093569;28;20452;-81
2023/05/25 08:06:56;;;;;;;24.83;7.23;;;;;;;41.08;33.89;101068.56;5095125;28;20397;-80
2023/05/25 08:09:22;;;;;;;17.77;7.87;;;;;;;41.13;34.12;101062.16;5088005;28;20414;-81
2023/05/25 08:11:48;;;;;;;17.47;6.57;;;;;;;41.23;33.59;101059.06;5069000;28;20465;-80
2023/05/25 08:14:15;;;;;;;17.27;6.20;;;;;;;41.11;33.56;101066.31;5092842;28;20417;-80
2023/05/25 08:16:41;;;;;;;15.33;6.40;;;;;;;41.25;33.79;101067.72;5091586;28;20175;-80
2023/05/25 08:19:07;;;;;;;16.03;8.20;;;;;;;41.20;33.91;101062.47;5091498;28;20508;-81
2023/05/25 08:21:33;;;;;;;16.97;6.67;;;;;;;41.22;33.56;101062.91;5092023;28;20235;-83
2023/05/25 08:24:02;;;;;;;19.30;6.43;;;;;;;41.09;33.75;101063.91;5093061;28;20402;-81
2023/05/25 08:26:29;;;;;;;22.97;6.97;;;;;;;41.03;33.76;101065.22;5091712;28;20409;-86
2023/05/25 08:28:55;;;;;;;20.13;6.60;;;;;;;41.09;33.74;101072.09;5091426;28;20409;-77
2023/05/25 08:31:21;;;;;;;20.07;7.73;;;;;;;41.14;34.01;101073.84;5090915;28;20940;-78
2023/05/25 08:33:47;;;;;;;20.40;10.50;;;;;;;41.27;34.16;101070.91;5089862;28;20937;-79
2023/05/25 08:36:13;;;;;;;20.40;10.47;;;;;;;41.41;33.85;101072.66;5090731;28;20478;-78
2023/05/25 08:38:39;;;;;;;18.07;9.30;;;;;;;41.32;33.81;101069.94;5091003;28;20281;-77
2023/05/25 08:41:06;;;;;;;24.37;12.30;;;;;;;41.39;34.10;101081.16;5091018;28;20167;-80
2023/05/25 08:43:33;;;;;;;16.63;8.40;;;;;;;41.41;33.74;101078.09;5074179;28;20468;-78
2023/05/25 08:46:04;;;;;;;19.30;7.70;;;;;;;41.42;34.12;101071.53;5088810;28;20416;-77
2023/05/25 08:48:32;;;;;;;20.77;7.90;;;;;;;41.42;33.64;101080.50;5089432;28;20446;-78
2023/05/25 08:51:01;;;;;;;21.13;11.87;;;;;;;41.55;33.92;101075.97;5089113;28;20405;-80
2023/05/25 08:53:30;;;;;;;17.53;9.13;;;;;;;41.53;33.92;101075.50;5091196;28;21018;-81
2023/05/25 08:55:58;;;;;;;24.80;10.77;;;;;;;41.60;33.92;101068.41;5091086;28;20944;-79
2023/05/25 08:58:32;;;;;;;19.23;8.63;;;;;;;41.66;33.54;101069.03;5090930;28;20448;-81
2023/05/25 09:01:03;;;;;;;22.27;10.30;;;;;;;41.61;33.94;101069.22;5091511;28;20876;-82
2023/05/25 09:03:30;;;;;;;30.00;18.13;;;;;;;41.68;34.03;101066.81;5091109;28;20790;-91
2023/05/25 09:05:56;;;;;;;29.67;17.93;;;;;;;41.77;33.78;101070.31;5091048;28;20846;-80
2023/05/25 09:08:23;;;;;;;20.77;16.87;;;;;;;41.79;33.77;101075.41;5090953;28;20401;-81
2023/05/25 09:10:51;;;;;;;21.30;14.43;;;;;;;41.80;33.93;101077.81;5091974;28;20519;-80
2023/05/25 09:13:17;;;;;;;24.13;11.17;;;;;;;41.82;33.39;101074.78;5091942;28;20460;-82
2023/05/25 09:15:43;;;;;;;25.70;14.20;;;;;;;41.82;33.81;101074.78;5092055;28;20407;-81
2023/05/25 09:18:09;;;;;;;19.90;9.80;;;;;;;41.80;34.11;101082.44;5091014;28;20444;-81
2023/05/25 09:20:35;;;;;;;20.90;11.20;;;;;;;41.78;33.55;101080.06;5090489;28;20429;-81
2023/05/25 09:23:02;;;;;;;23.57;14.47;;;;;;;41.91;33.56;101085.63;5090430;28;20696;-82
2023/05/25 09:25:30;;;;;;;17.53;13.03;;;;;;;42.02;33.67;101084.91;5089049;28;20415;-80
2023/05/25 09:27:57;;;;;;;22.40;10.43;;;;;;;42.08;33.91;101086.31;5074147;28;20432;-80
2023/05/25 09:30:24;;;;;;;21.40;11.10;;;;;;;42.13;33.85;101088.06;5091653;28;20416;-80
2023/05/25 09:32:50;;;;;;;23.07;11.90;;;;;;;42.07;33.50;101098.34;5090183;28;20455;-82
2023/05/25 09:35:16;;;;;;;21.93;11.37;;;;;;;42.15;33.43;101091.25;5091123;28;20858;-81
2023/05/25 09:37:43;;;;;;;28.43;11.10;;;;;;;42.15;33.55;101093.97;5091657;28;20785;-81
2023/05/25 09:40:12;;;;;;;16.60;8.10;;;;;;;42.24;34.11;101086.56;5091856;28;20409;-83
2023/05/25 09:42:38;;;;;;;14.80;7.90;;;;;;;42.26;34.22;101083.50;5091567;28;20425;-81
2023/05/25 09:45:05;;;;;;;14.87;6.33;;;;;;;42.17;34.49;101083.56;5092908;28;20939;-80
2023/05/25 09:47:36;;;;;;;18.10;7.20;;;;;;;42.19;34.27;101075.88;5090736;28;20843;-84
2023/05/25 09:50:02;;;;;;;21.50;8.10;;;;;;;42.24;34.50;101080.34;5082939;28;20404;-83
2023/05/25 09:52:28;;;;;;;11.10;7.20;;;;;;;42.27;34.05;101085.91;5091173;28;20445;-83
2023/05/25 09:54:56;;;;;;;17.87;7.70;;;;;;;42.31;34.52;101075.94;5093255;28;20768;-81
2023/05/25 09:57:22;;;;;;;22.63;6.70;;;;;;;42.36;33.76;101074.94;5089654;28;20413;-81
2023/05/25 09:59:51;;;;;;;20.40;7.17;;;;;;;42.38;34.04;101084.38;5092594;28;20415;-81
2023/05/25 10:02:30;;;;;;;17.20;7.17;;;;;;;42.36;33.99;101077.69;5074488;28;20945;-82
2023/05/25 10:04:58;;;;;;;12.10;6.67;;;;;;;42.41;34.12;101082.91;5089953;28;20404;-81
2023/05/25 10:07:27;;;;;;;11.20;6.17;;;;;;;42.42;33.65;101083.69;5091013;28;20417;-80
2023/05/25 10:09:59;;;;;;;15.07;7.43;;;;;;;42.47;33.78;101078.84;5070917;28;20501;-83
2023/05/25 10:12:28;;;;;;;24.73;8.53;;;;;;;42.44;33.63;101076.81;5086176;28;20814;-81
2023/05/25 10:14:58;;;;;;;31.97;12.17;;;;;;;42.48;34.35;101075.03;5092358;28;20401;-81
2023/05/25 10:17:27;;;;;;;22.30;7.90;;;;;;;42.46;34.00;101079.19;5090779;28;20401;-87
2023/05/25 10:19:58;;;;;;;17.30;6.37;;;;;;;42.46;33.80;101071.00;5079459;28;20444;-83
2023/05/25 10:22:31;;;;;;;25.70;8.33;;;;;;;42.45;34.05;101070.22;5092639;28;20417;-84
2023/05/25 10:25:15;;;;;;;15.17;5.83;;;;;;;42.51;34.59;101068.09;5089096;28;20413;-83
2023/05/25 10:27:46;;;;;;;22.83;8.17;;;;;;;42.49;33.98;101065.69;5089753;28;20413;-82
2023/05/25 10:30:14;;;;;;;16.10;6.90;;;;;;;42.58;33.80;101068.38;5089398;28;20428;-85
2023/05/25 10:32:42;;;;;;;18.50;6.73;;;;;;;42.51;33.56;101060.69;5089412;28;20547;-85
2023/05/25 10:35:09;;;;;;;25.50;9.33;;;;;;;42.56;33.85;101071.41;5091046;28;20420;-84
2023/05/25 10:37:36;;;;;;;14.77;6.10;;;;;;;42.54;33.83;101068.22;5091038;28;20433;-83
2023/05/25 10:40:02;;;;;;;18.93;5.80;;;;;;;42.56;33.53;101068.69;5087305;28;20446;-83
2023/05/25 10:42:29;;;;;;;16.43;6.23;;;;;;;42.52;33.78;101065.03;5071024;28;20386;-85
2023/05/25 10:44:56;;;;;;;14.03;5.43;;;;;;;42.48;33.83;101063.28;5070524;28;20418;-84
2023/05/25 10:47:23;;;;;;;14.57;5.97;;;;;;;42.52;33.64;101067.75;5070581;28;20771;-82
2023/05/25 10:49:55;;;;;;;11.67;6.00;;;;;;;42.57;34.13;101073.03;5073579;28;20423;-83
2023/05/25 10:52:25;;;;;;;18.63;5.97;;;;;;;42.58;34.12;101066.44;5092470;28;20444;-83
2023/05/25 10:54:55;;;;;;;10.83;5.20;;;;;;;42.62;33.92;101063.84;5091001;28;20495;-83
2023/05/25 10:57:24;;;;;;;16.60;6.83;;;;;;;42.67;33.50;101063.66;5090510;28;20440;-82
2023/05/25 10:59:54;;;;;;;14.50;6.00;;;;;;;42.67;33.70;101058.19;5090774;28;20444;-82
2023/05/25 11:02:23;;;;;;;15.67;7.73;;;;;;;42.61;34.41;101062.25;5093482;28;20428;-82
2023/05/25 11:04:49;;;;;;;14.07;8.27;;;;;;;42.63;34.01;101058.06;5094686;28;20503;-82
2023/05/25 11:07:18;;;;;;;18.30;8.00;;;;;;;42.71;34.51;101059.09;5096083;28;20957;-83
2023/05/25 11:09:58;;;;;;;15.53;6.33;;;;;;;42.69;33.76;101052.41;5092606;28;20448;-85
2023/05/25 11:12:25;;;;;;;14.67;6.57;;;;;;;42.72;34.23;101052.50;5075417;28;20503;-84
2023/05/25 11:15:11;;;;;;;19.77;7.47;;;;;;;42.70;33.99;101052.06;5074268;28;20433;-86